createdAt,value
2023-05-03T00:02:04.571Z,97241.75
2023-05-03T00:04:35.077Z,96965.03
2023-05-03T00:07:05.352Z,97251.81
2023-05-03T00:09:34.832Z,97252.22
2023-05-03T00:12:03.088Z,97250.53
2023-05-03T00:14:36.204Z,97236.09
2023-05-03T00:17:07.501Z,97217.53
2023-05-03T00:19:38.464Z,97232.75
2023-05-03T00:22:10.407Z,97276.72
2023-05-03T00:24:38.358Z,97227.28
2023-05-03T00:27:11.412Z,97246.94
2023-05-03T00:29:41.656Z,97245.13
2023-05-03T00:32:11.351Z,97239.00
2023-05-03T00:34:39.656Z,97236.91
2023-05-03T00:37:13.083Z,97239.91
2023-05-03T00:39:41.189Z,97236.53
2023-05-03T00:42:10.463Z,97230.34
2023-05-03T00:44:38.578Z,97226.69
2023-05-03T00:47:10.725Z,97192.66
2023-05-03T00:49:39.346Z,97221.88
2023-05-03T00:52:20.965Z,97219.13
2023-05-03T00:54:49.123Z,97217.38
2023-05-03T00:57:21.948Z,97219.91
2023-05-03T00:59:55.023Z,97219.19
2023-05-03T01:02:29.686Z,97216.28
2023-05-03T01:05:08.501Z,97228.22
2023-05-03T01:07:45.349Z,97219.44
2023-05-03T01:10:22.965Z,97224.13
2023-05-03T01:12:57.167Z,97218.38
2023-05-03T01:15:35.572Z,97210.78
2023-05-03T01:18:12.724Z,97209.81
2023-05-03T01:20:45.618Z,97213.31
2023-05-03T01:23:20.882Z,97040.50
2023-05-03T01:25:53.259Z,97211.03
2023-05-03T01:28:27.178Z,97211.81
2023-05-03T01:30:55.812Z,97213.81
2023-05-03T01:33:30.172Z,97156.16
2023-05-03T01:36:02.604Z,97220.91
2023-05-03T01:38:34.216Z,97206.53
2023-05-03T01:41:10.631Z,97165.56
2023-05-03T01:43:40.081Z,97116.31
2023-05-03T01:46:08.178Z,97159.75
2023-05-03T01:48:39.349Z,97202.47
2023-05-03T01:51:22.516Z,97196.84
2023-05-03T01:53:53.015Z,97173.13
2023-05-03T01:56:23.224Z,97118.91
2023-05-03T01:59:00.291Z,97194.66
2023-05-03T02:01:34.816Z,97197.84
2023-05-03T02:04:04.200Z,97199.31
2023-05-03T02:06:32.493Z,97206.09
2023-05-03T02:09:06.749Z,97198.44
2023-05-03T02:11:42.242Z,97191.22
2023-05-03T02:14:10.624Z,97192.78
2023-05-03T02:16:39.070Z,97198.50
2023-05-03T02:19:11.442Z,97192.25
2023-05-03T02:21:40.536Z,97194.56
2023-05-03T02:24:08.872Z,97196.50
2023-05-03T02:26:38.205Z,97196.47
2023-05-03T02:29:23.122Z,97151.59
2023-05-03T02:31:51.246Z,97180.97
2023-05-03T02:37:04.737Z,97188.91
2023-05-03T02:39:33.073Z,97179.69
2023-05-03T02:42:08.416Z,97173.03
2023-05-03T02:44:39.120Z,97178.66
2023-05-03T02:47:07.625Z,97179.59
2023-05-03T02:49:38.672Z,97173.38
2023-05-03T02:52:16.254Z,97184.47
2023-05-03T02:54:44.831Z,97177.72
2023-05-03T02:57:14.147Z,97187.94
2023-05-03T02:59:42.418Z,97183.03
2023-05-03T03:02:10.787Z,97179.81
2023-05-03T03:04:41.476Z,97109.28
2023-05-03T03:07:09.601Z,97182.78
2023-05-03T03:09:37.880Z,97189.75
2023-05-03T03:12:06.372Z,97183.59
2023-05-03T03:14:37.422Z,97181.63
2023-05-03T03:17:10.708Z,97188.69
2023-05-03T03:19:38.902Z,97179.16
2023-05-03T03:22:07.540Z,97185.13
2023-05-03T03:24:35.769Z,97187.59
2023-05-03T03:27:04.242Z,97184.25
2023-05-03T03:29:37.901Z,97178.50
2023-05-03T03:32:06.431Z,97183.63
2023-05-03T03:34:40.451Z,97186.41
2023-05-03T03:37:11.175Z,97191.88
2023-05-03T03:39:40.438Z,97195.22
2023-05-03T03:42:12.812Z,97194.00
2023-05-03T03:44:44.550Z,97198.94
2023-05-03T03:47:14.380Z,97200.34
2023-05-03T03:49:43.097Z,97164.59
2023-05-03T03:52:14.473Z,97197.88
2023-05-03T03:54:42.909Z,97159.97
2023-05-03T03:57:11.373Z,97209.22
2023-05-03T03:59:41.966Z,97208.16
2023-05-03T04:02:12.205Z,97166.03
2023-05-03T04:04:47.106Z,97213.72
2023-05-03T04:07:15.258Z,97207.84
2023-05-03T04:09:46.381Z,96453.22
2023-05-03T04:12:14.454Z,97172.94
2023-05-03T04:14:42.370Z,97218.59
2023-05-03T04:17:14.310Z,97223.78
2023-05-03T04:19:57.944Z,97225.41
2023-05-03T04:22:26.127Z,97226.25
2023-05-03T04:24:54.766Z,97226.13
2023-05-03T04:27:24.331Z,97223.28
2023-05-03T04:29:58.164Z,97226.91
2023-05-03T04:32:28.235Z,97217.97
2023-05-03T04:34:56.387Z,97227.09
2023-05-03T04:37:27.816Z,97218.84
2023-05-03T04:39:56.036Z,97229.81
2023-05-03T04:42:24.300Z,97235.28
2023-05-03T04:44:56.639Z,97204.03
2023-05-03T04:47:27.019Z,97229.13
2023-05-03T04:49:56.864Z,97196.19
2023-05-03T04:52:26.515Z,97236.75
2023-05-03T04:54:57.762Z,97195.53
2023-05-03T04:57:26.279Z,97239.91
2023-05-03T04:59:57.444Z,97238.22
2023-05-03T05:02:28.492Z,97238.66
2023-05-03T05:04:59.348Z,97239.56
2023-05-03T05:07:27.682Z,97241.72
2023-05-03T05:10:02.468Z,97204.53
2023-05-03T05:12:32.360Z,97247.53
2023-05-03T05:15:00.431Z,97238.84
2023-05-03T05:17:29.004Z,97239.50
2023-05-03T05:20:07.479Z,97241.78
2023-05-03T05:22:40.037Z,97244.94
2023-05-03T05:25:09.209Z,97207.03
2023-05-03T05:27:39.916Z,97244.50
2023-05-03T05:30:09.754Z,97300.72
2023-05-03T05:32:38.142Z,97241.47
2023-05-03T05:35:09.718Z,97176.94
2023-05-03T05:37:38.187Z,97248.38
2023-05-03T05:40:15.221Z,97246.66
2023-05-03T05:42:43.887Z,97138.66
2023-05-03T05:45:17.551Z,97249.97
2023-05-03T05:47:50.156Z,97245.41
2023-05-03T05:50:25.307Z,97000.03
2023-05-03T05:53:01.250Z,97140.72
2023-05-03T05:55:37.611Z,97239.97
2023-05-03T05:58:05.973Z,97235.47
2023-05-03T06:00:36.488Z,97175.84
2023-05-03T06:03:06.543Z,97244.63
2023-05-03T06:05:41.032Z,97246.03
2023-05-03T06:08:13.112Z,97241.41
2023-05-03T06:10:42.284Z,97243.38
2023-05-03T06:13:11.470Z,97246.78
2023-05-03T06:15:39.703Z,97246.44
2023-05-03T06:18:09.501Z,97242.72
2023-05-03T06:20:45.478Z,97244.47
2023-05-03T06:23:13.941Z,97250.88
2023-05-03T06:25:44.360Z,97245.97
2023-05-03T06:28:18.878Z,97241.59
2023-05-03T06:30:51.061Z,97246.34
2023-05-03T06:33:20.140Z,97245.66
2023-05-03T06:35:52.090Z,97260.63
2023-05-03T06:38:20.753Z,97253.56
2023-05-03T06:40:50.810Z,97149.41
2023-05-03T06:43:22.575Z,97249.78
2023-05-03T06:45:54.041Z,97210.75
2023-05-03T06:48:24.340Z,97249.16
2023-05-03T06:50:56.626Z,97253.19
2023-05-03T06:53:25.143Z,97253.28
2023-05-03T06:55:56.405Z,97188.00
2023-05-03T06:58:24.832Z,97243.91
2023-05-03T07:00:54.146Z,97238.47
2023-05-03T07:03:23.626Z,97203.50
2023-05-03T07:05:53.060Z,97247.34
2023-05-03T07:08:25.305Z,97236.28
2023-05-03T07:10:53.836Z,97234.78
2023-05-03T07:13:25.095Z,97238.09
2023-05-03T07:15:55.359Z,97226.78
2023-05-03T07:18:24.265Z,97160.13
2023-05-03T07:20:59.297Z,97198.09
2023-05-03T07:23:32.105Z,97226.44
2023-05-03T07:26:04.594Z,97234.66
2023-05-03T07:28:34.843Z,97236.53
2023-05-03T07:31:11.077Z,97137.47
2023-05-03T07:33:39.781Z,97100.97
2023-05-03T07:36:15.192Z,97228.00
2023-05-03T07:38:48.809Z,97224.59
2023-05-03T07:41:25.471Z,97222.66
2023-05-03T07:43:59.046Z,97208.25
2023-05-03T07:46:29.703Z,97182.97
2023-05-03T07:49:14.350Z,97197.38
2023-05-03T07:51:45.983Z,97209.56
2023-05-03T07:54:14.532Z,97166.78
2023-05-03T07:56:43.618Z,97172.28
2023-05-03T07:59:12.910Z,97199.94
2023-05-03T08:01:42.430Z,97203.16
2023-05-03T08:04:16.605Z,97201.25
2023-05-03T08:06:57.496Z,97204.44
2023-05-03T08:09:39.012Z,97198.06
2023-05-03T08:12:18.926Z,97187.13
2023-05-03T08:14:47.180Z,97154.94
2023-05-03T08:17:24.465Z,97199.63
2023-05-03T08:20:01.361Z,97206.88
2023-05-03T08:22:37.982Z,97200.78
2023-05-03T08:25:09.154Z,97202.88
2023-05-03T08:27:40.283Z,97201.81
2023-05-03T08:30:14.453Z,97208.75
2023-05-03T08:32:46.909Z,97162.84
2023-05-03T08:35:15.461Z,97210.09
2023-05-03T08:37:46.755Z,97201.28
2023-05-03T08:40:15.661Z,97205.25
2023-05-03T08:42:47.175Z,97207.16
2023-05-03T08:45:20.165Z,97188.50
2023-05-03T08:47:48.600Z,97215.13
2023-05-03T08:50:18.586Z,97198.66
2023-05-03T08:52:48.672Z,97209.81
2023-05-03T08:55:17.030Z,97230.34
2023-05-03T08:57:47.477Z,97211.91
2023-05-03T09:00:18.051Z,97217.78
2023-05-03T09:02:50.238Z,97223.41
2023-05-03T09:05:42.540Z,97183.16
2023-05-03T09:08:17.345Z,97214.59
2023-05-03T09:10:51.620Z,97214.06
2023-05-03T09:13:22.492Z,97113.41
2023-05-03T09:15:55.838Z,97211.84
2023-05-03T09:18:25.856Z,97207.53
2023-05-03T09:20:54.549Z,97206.47
2023-05-03T09:23:33.776Z,97210.75
2023-05-03T09:26:05.387Z,97207.09
2023-05-03T09:28:46.029Z,97217.81
2023-05-03T09:31:16.196Z,97210.25
2023-05-03T09:33:52.046Z,97216.91
2023-05-03T09:36:26.493Z,97157.84
2023-05-03T09:38:57.651Z,97209.28
2023-05-03T09:41:29.871Z,97215.09
2023-05-03T09:44:04.775Z,97198.59
2023-05-03T09:46:33.517Z,97212.34
2023-05-03T09:49:02.524Z,97196.31
2023-05-03T09:51:33.142Z,97141.09
2023-05-03T09:54:04.822Z,97213.16
2023-05-03T09:56:35.316Z,97214.56
2023-05-03T09:59:13.300Z,97185.81
2023-05-03T10:01:41.877Z,97183.44
2023-05-03T10:04:11.472Z,97223.06
2023-05-03T10:06:41.816Z,97211.81
2023-05-03T10:09:21.000Z,97199.97
2023-05-03T10:11:50.375Z,97205.94
2023-05-03T10:14:20.901Z,97204.59
2023-05-03T10:16:53.995Z,97205.38
2023-05-03T10:19:31.366Z,97203.63
2023-05-03T10:22:09.111Z,97160.53
2023-05-03T10:25:10.219Z,97174.28
2023-05-03T10:27:53.217Z,97211.78
2023-05-03T10:30:50.722Z,97197.84
2023-05-03T10:33:34.228Z,97179.44
2023-05-03T10:36:07.173Z,97170.44
2023-05-03T10:38:35.827Z,97181.13
2023-05-03T10:41:09.166Z,96946.28
2023-05-03T10:43:45.061Z,97179.31
2023-05-03T10:46:31.512Z,97169.50
2023-05-03T10:49:19.376Z,97111.88
2023-05-03T10:51:51.380Z,97165.50
2023-05-03T10:54:20.402Z,97162.22
2023-05-03T10:57:06.725Z,97158.75
2023-05-03T10:59:48.364Z,97157.00
2023-05-03T11:02:32.847Z,97126.03
2023-05-03T11:05:04.464Z,97150.91
2023-05-03T11:07:35.208Z,97133.47
2023-05-03T11:10:18.760Z,97148.75
2023-05-03T11:12:54.407Z,97151.56
2023-05-03T11:15:22.723Z,97134.69
2023-05-03T11:17:56.550Z,97138.78
2023-05-03T11:20:25.646Z,97131.09
2023-05-03T11:22:56.658Z,97126.16
2023-05-03T11:25:24.593Z,97126.69
2023-05-03T11:27:53.980Z,97049.25
2023-05-03T11:30:25.635Z,97119.00
2023-05-03T11:33:00.966Z,97121.31
2023-05-03T11:35:30.561Z,97070.78
2023-05-03T11:38:05.829Z,97082.00
2023-05-03T11:40:36.303Z,97118.59
2023-05-03T11:43:07.704Z,97078.81
2023-05-03T11:45:44.659Z,97117.38
2023-05-03T11:48:18.813Z,97117.88
2023-05-03T11:50:51.743Z,97107.13
2023-05-03T11:53:20.946Z,97098.56
2023-05-03T11:55:53.321Z,97100.81
2023-05-03T11:58:27.033Z,97024.47
2023-05-03T12:01:02.337Z,97087.91
2023-05-03T12:03:33.572Z,97101.16
2023-05-03T12:06:10.204Z,97086.81
2023-05-03T12:08:45.250Z,97054.81
2023-05-03T12:11:15.054Z,97099.66
2023-05-03T12:13:47.953Z,97101.53
2023-05-03T12:16:20.652Z,97105.94
2023-05-03T12:18:56.586Z,97099.81
2023-05-03T12:21:31.788Z,97095.03
2023-05-03T12:24:01.601Z,97088.13
2023-05-03T12:26:31.935Z,97089.94
2023-05-03T12:29:06.780Z,97082.66
2023-05-03T12:31:39.170Z,97071.34
2023-05-03T12:34:31.761Z,97084.50
2023-05-03T12:37:16.953Z,97072.09
2023-05-03T12:39:52.143Z,97067.22
2023-05-03T12:42:29.437Z,97058.59
2023-05-03T12:45:04.010Z,97065.88
2023-05-03T12:47:36.492Z,96826.56
2023-05-03T12:50:10.213Z,97047.69
2023-05-03T12:52:45.896Z,97018.44
2023-05-03T12:55:18.443Z,97063.78
2023-05-03T12:57:59.406Z,97012.59
2023-05-03T13:00:46.681Z,97050.97
2023-05-03T13:03:32.466Z,97051.03
2023-05-03T13:06:12.424Z,97056.09
2023-05-03T13:08:50.128Z,97053.75
2023-05-03T13:11:26.774Z,97047.00
2023-05-03T13:13:55.433Z,97037.88
2023-05-03T13:16:26.987Z,97040.53
2023-05-03T13:18:56.643Z,97043.09
2023-05-03T13:21:32.670Z,96999.88
2023-05-03T13:24:00.719Z,97039.94
2023-05-03T13:26:35.634Z,97033.25
2023-05-03T13:29:06.410Z,97015.56
2023-05-03T13:31:36.378Z,97015.31
2023-05-03T13:34:06.628Z,97012.41
2023-05-03T13:36:34.634Z,97014.03
2023-05-03T13:39:11.088Z,97013.31
2023-05-03T13:41:41.115Z,97003.09
2023-05-03T13:44:11.977Z,97011.78
2023-05-03T13:46:50.068Z,96945.63
2023-05-03T13:49:18.773Z,97015.19
2023-05-03T13:51:47.053Z,97013.25
2023-05-03T13:54:19.471Z,96933.56
2023-05-03T13:56:51.012Z,96994.94
2023-05-03T13:59:23.274Z,96996.47
2023-05-03T14:01:56.686Z,96986.81
2023-05-03T14:04:26.090Z,96984.06
2023-05-03T14:06:56.476Z,96996.81
2023-05-03T14:09:24.755Z,96999.06
2023-05-03T14:11:56.781Z,96970.53
2023-05-03T14:14:28.181Z,96988.47
2023-05-03T14:16:59.580Z,96933.06
2023-05-03T14:19:28.237Z,96937.72
2023-05-03T14:21:59.974Z,96979.25
2023-05-03T14:24:28.534Z,96976.47
2023-05-03T14:26:59.431Z,96973.78
2023-05-03T14:29:31.979Z,96965.28
2023-05-03T14:32:01.925Z,96963.78
2023-05-03T14:34:32.842Z,96966.22
2023-05-03T14:37:01.150Z,96959.19
2023-05-03T14:39:30.642Z,96960.16
2023-05-03T14:41:59.817Z,96945.03
2023-05-03T14:44:30.044Z,96952.25
2023-05-03T14:47:01.725Z,96948.38
2023-05-03T14:49:37.675Z,96935.94
2023-05-03T14:52:07.801Z,96940.97
2023-05-03T14:54:36.284Z,96935.97
2023-05-03T14:57:05.109Z,96942.94
2023-05-03T14:59:36.078Z,96927.97
2023-05-03T15:02:07.136Z,96938.41
2023-05-03T15:04:39.296Z,96939.88
2023-05-03T15:07:09.583Z,96947.50
2023-05-03T15:09:39.456Z,96900.06
2023-05-03T15:12:11.801Z,96951.00
2023-05-03T15:14:45.173Z,96952.03
2023-05-03T15:17:17.171Z,96937.28
2023-05-03T15:19:49.579Z,96935.44
2023-05-03T15:22:20.420Z,96937.94
2023-05-03T15:24:51.241Z,96945.38
2023-05-03T15:27:19.706Z,96905.03
2023-05-03T15:29:47.925Z,96941.78
2023-05-03T15:32:26.844Z,96946.72
2023-05-03T15:35:02.138Z,96948.03
2023-05-03T15:37:37.245Z,96950.94
2023-05-03T15:40:06.797Z,96951.59
2023-05-03T15:42:34.974Z,96948.03
2023-05-03T15:45:03.393Z,96941.16
2023-05-03T15:47:36.917Z,96927.56
2023-05-03T15:50:08.164Z,96942.00
2023-05-03T15:52:47.816Z,96922.59
2023-05-03T15:55:18.795Z,96853.56
2023-05-03T15:57:51.157Z,96939.59
2023-05-03T16:00:23.154Z,96935.47
2023-05-03T16:02:51.718Z,96932.28
2023-05-03T16:05:25.960Z,96948.66
2023-05-03T16:07:55.093Z,96946.16
2023-05-03T16:10:31.997Z,96938.03
2023-05-03T16:13:00.269Z,96942.38
2023-05-03T16:15:30.998Z,96939.53
2023-05-03T16:18:07.698Z,96936.69
2023-05-03T16:20:42.548Z,96933.56
2023-05-03T16:23:10.960Z,96936.56
2023-05-03T16:25:39.208Z,96935.59
2023-05-03T16:28:10.112Z,96934.25
2023-05-03T16:30:41.790Z,96939.38
2023-05-03T16:33:10.665Z,96940.19
2023-05-03T16:35:40.419Z,96929.22
2023-05-03T16:38:08.763Z,96933.72
2023-05-03T16:40:39.631Z,96925.84
2023-05-03T16:43:13.607Z,96892.75
2023-05-03T16:45:42.459Z,96888.06
2023-05-03T16:48:13.072Z,96914.72
2023-05-03T16:50:46.163Z,96919.03
2023-05-03T16:53:15.289Z,96913.41
2023-05-03T16:55:47.600Z,96910.44
2023-05-03T16:58:16.493Z,96911.19
2023-05-03T17:00:44.413Z,96918.66
2023-05-03T17:03:12.976Z,96787.69
2023-05-03T17:05:41.529Z,96884.09
2023-05-03T17:08:11.377Z,96908.31
2023-05-03T17:10:46.966Z,96795.53
2023-05-03T17:13:16.652Z,96917.06
2023-05-03T17:15:48.265Z,96877.00
2023-05-03T17:18:23.590Z,96917.25
2023-05-03T17:20:53.063Z,96909.88
2023-05-03T17:23:24.029Z,96911.19
2023-05-03T17:26:03.171Z,96872.09
2023-05-03T17:28:34.203Z,96910.25
2023-05-03T17:31:03.114Z,96907.56
2023-05-03T17:33:32.563Z,96905.66
2023-05-03T17:36:05.183Z,96906.00
2023-05-03T17:38:40.859Z,96850.97
2023-05-03T17:41:11.158Z,96908.56
2023-05-03T17:43:43.598Z,96913.41
2023-05-03T17:46:26.261Z,96858.81
2023-05-03T17:48:58.076Z,96861.72
2023-05-03T17:51:29.141Z,96914.66
2023-05-03T17:53:59.365Z,96923.16
2023-05-03T17:56:27.750Z,96920.84
2023-05-03T17:58:56.398Z,96919.13
2023-05-03T18:01:24.748Z,96917.06
2023-05-03T18:03:53.100Z,96922.03
2023-05-03T18:06:22.685Z,96833.31
2023-05-03T18:08:52.636Z,96921.91
2023-05-03T18:11:26.197Z,96923.50
2023-05-03T18:13:54.790Z,96927.38
2023-05-03T18:16:30.335Z,96929.53
2023-05-03T18:18:58.840Z,96933.22
2023-05-03T18:21:31.579Z,96862.59
2023-05-03T18:24:01.808Z,96937.19
2023-05-03T18:26:31.455Z,96940.50
2023-05-03T18:29:02.143Z,96943.03
2023-05-03T18:31:32.470Z,96938.34
2023-05-03T18:34:02.691Z,96941.97
2023-05-03T18:36:31.441Z,96943.81
2023-05-03T18:39:03.940Z,96942.88
2023-05-03T18:41:36.191Z,96947.03
2023-05-03T18:44:05.339Z,96948.31
2023-05-03T18:46:33.615Z,96950.06
2023-05-03T18:49:10.369Z,96917.31
2023-05-03T18:51:40.421Z,96957.78
2023-05-03T18:54:13.641Z,96961.00
2023-05-03T18:56:43.650Z,96892.56
2023-05-03T18:59:11.576Z,96960.19
2023-05-03T19:01:41.864Z,96954.81
2023-05-03T19:04:15.106Z,96820.94
2023-05-03T19:06:43.408Z,96957.19
2023-05-03T19:09:11.973Z,96957.09
2023-05-03T19:11:43.868Z,96862.97
2023-05-03T19:14:12.780Z,96859.44
2023-05-03T19:16:41.586Z,96900.34
2023-05-03T19:19:11.044Z,96963.69
2023-05-03T19:21:42.543Z,96932.41
2023-05-03T19:24:15.257Z,96971.31
2023-05-03T19:26:45.420Z,96910.94
2023-05-03T19:29:14.014Z,96982.69
2023-05-03T19:31:42.140Z,96965.78
2023-05-03T19:34:12.981Z,96966.44
2023-05-03T19:36:41.383Z,96973.38
2023-05-03T19:39:13.537Z,96942.88
2023-05-03T19:41:43.622Z,96821.94
2023-05-03T19:44:13.666Z,96930.22
2023-05-03T19:46:41.869Z,96976.19
2023-05-03T19:49:11.476Z,96949.41
2023-05-03T19:51:41.024Z,96855.06
2023-05-03T19:54:09.269Z,96974.41
2023-05-03T19:56:40.939Z,96980.84
2023-05-03T19:59:29.546Z,96980.13
2023-05-03T20:01:59.742Z,96957.31
2023-05-03T20:04:28.380Z,96922.50
2023-05-03T20:06:57.564Z,96987.00
2023-05-03T20:09:25.970Z,96958.59
2023-05-03T20:12:00.409Z,96966.63
2023-05-03T20:14:31.251Z,96994.06
2023-05-03T20:17:07.111Z,96991.72
2023-05-03T20:19:35.507Z,96992.28
2023-05-03T20:22:03.470Z,96998.22
2023-05-03T20:24:37.184Z,96966.34
2023-05-03T20:27:05.725Z,96996.09
2023-05-03T20:29:34.471Z,96989.75
2023-05-03T20:32:07.105Z,97001.41
2023-05-03T20:34:35.502Z,97000.09
2023-05-03T20:37:03.648Z,97001.44
2023-05-03T20:39:34.375Z,96999.84
2023-05-03T20:42:04.078Z,96990.75
2023-05-03T20:44:32.651Z,96936.06
2023-05-03T20:47:00.685Z,96992.38
2023-05-03T20:49:33.165Z,96956.78
2023-05-03T20:52:05.819Z,96963.13
2023-05-03T20:54:34.041Z,96990.97
2023-05-03T20:57:02.507Z,96979.19
2023-05-03T20:59:31.047Z,96985.88
2023-05-03T21:01:59.296Z,96987.25
2023-05-03T21:04:30.930Z,96968.59
2023-05-03T21:07:01.062Z,96986.97
2023-05-03T21:09:29.405Z,96991.78
2023-05-03T21:11:57.572Z,96981.69
2023-05-03T21:14:33.832Z,96983.03
2023-05-03T21:17:10.542Z,96988.69
2023-05-03T21:19:39.806Z,96991.00
2023-05-03T21:22:09.500Z,96928.53
2023-05-03T21:24:42.952Z,96990.66
2023-05-03T21:27:11.229Z,96982.91
2023-05-03T21:29:40.364Z,96973.84
2023-05-03T21:32:17.291Z,96975.63
2023-05-03T21:34:47.923Z,96970.84
2023-05-03T21:37:19.516Z,96970.34
2023-05-03T21:40:00.535Z,96970.94
2023-05-03T21:42:32.373Z,96971.47
2023-05-03T21:45:12.298Z,96952.81
2023-05-03T21:47:42.562Z,96970.78
2023-05-03T21:50:13.019Z,96959.00
2023-05-03T21:52:46.302Z,96962.75
2023-05-03T21:55:14.815Z,96954.06
2023-05-03T21:57:48.337Z,96957.59
2023-05-03T22:00:21.458Z,96952.56
2023-05-03T22:02:50.218Z,96926.56
2023-05-03T22:05:18.508Z,96939.31
2023-05-03T22:07:49.008Z,96892.59
2023-05-03T22:10:17.305Z,96950.09
2023-05-03T22:12:45.654Z,96951.13
2023-05-03T22:15:17.004Z,96946.81
2023-05-03T22:17:45.107Z,96949.28
2023-05-03T22:20:15.505Z,96951.91
2023-05-03T22:22:50.114Z,96953.38
2023-05-03T22:25:28.557Z,96949.91
2023-05-03T22:27:59.607Z,96866.44
2023-05-03T22:30:30.259Z,96941.81
2023-05-03T22:33:04.625Z,96944.00
2023-05-03T22:35:32.746Z,96949.13
2023-05-03T22:38:04.165Z,96914.84
2023-05-03T22:40:35.576Z,96945.66
2023-05-03T22:43:11.568Z,96904.25
2023-05-03T22:45:46.340Z,96943.84
2023-05-03T22:48:15.032Z,96940.63
2023-05-03T22:50:48.829Z,96930.78
2023-05-03T22:53:18.979Z,96957.94
2023-05-03T22:55:59.072Z,96925.44
2023-05-03T22:58:39.778Z,96933.75
2023-05-03T23:01:15.692Z,96898.72
2023-05-03T23:03:47.057Z,96930.78
2023-05-03T23:06:16.441Z,96927.53
2023-05-03T23:08:46.103Z,96912.13
2023-05-03T23:11:17.319Z,96712.44
2023-05-03T23:13:48.534Z,96920.66
2023-05-03T23:16:18.756Z,96923.53
2023-05-03T23:18:57.979Z,96885.03
2023-05-03T23:21:28.123Z,96916.38
2023-05-03T23:24:00.612Z,96921.13
2023-05-03T23:26:31.720Z,96918.97
2023-05-03T23:29:01.922Z,96929.09
2023-05-03T23:31:31.490Z,96927.41
2023-05-03T23:34:02.327Z,96706.06
2023-05-03T23:36:32.017Z,96925.97
2023-05-03T23:39:01.936Z,96892.19
2023-05-03T23:41:30.151Z,96927.56
2023-05-03T23:44:00.878Z,96923.31
2023-05-03T23:46:34.093Z,96913.16
2023-05-03T23:49:05.875Z,96916.81
2023-05-03T23:51:35.613Z,96886.63
2023-05-03T23:54:08.229Z,96829.53
2023-05-03T23:56:36.643Z,96910.25
2023-05-03T23:59:11.473Z,96869.13
